sensor_id;sensor_type;location;lat;lon;timestamp;pressure;altitude;pressure_sealevel;temperature;humidity
64189;BME280;50493;50.970;10.082;2023-02-01T00:00:53;99468.22;;;2.83;69.50
64189;BME280;50493;50.970;10.082;2023-02-01T00:03:18;99475.06;;;2.81;68.11
64189;BME280;50493;50.970;10.082;2023-02-01T00:05:44;99487.00;;;2.71;70.26
64189;BME280;50493;50.970;10.082;2023-02-01T00:08:10;99480.06;;;2.67;71.33
64189;BME280;50493;50.970;10.082;2023-02-01T00:10:36;99469.84;;;2.75;69.03
64189;BME280;50493;50.970;10.082;2023-02-01T00:13:01;99469.09;;;2.87;70.28
64189;BME280;50493;50.970;10.082;2023-02-01T00:15:26;99466.41;;;2.76;70.02
64189;BME280;50493;50.970;10.082;2023-02-01T00:17:53;99471.06;;;3.06;68.55
64189;BME280;50493;50.970;10.082;2023-02-01T00:20:18;99464.31;;;3.21;67.19
64189;BME280;50493;50.970;10.082;2023-02-01T00:22:44;99457.44;;;3.23;67.76
64189;BME280;50493;50.970;10.082;2023-02-01T00:25:10;99465.91;;;3.06;67.46
64189;BME280;50493;50.970;10.082;2023-02-01T00:27:35;99468.72;;;3.33;69.69
64189;BME280;50493;50.970;10.082;2023-02-01T00:30:01;99466.31;;;3.50;68.23
64189;BME280;50493;50.970;10.082;2023-02-01T00:32:26;99460.13;;;3.35;66.28
64189;BME280;50493;50.970;10.082;2023-02-01T00:34:52;99462.88;;;3.51;66.76
64189;BME280;50493;50.970;10.082;2023-02-01T00:37:17;99461.91;;;3.43;66.26
64189;BME280;50493;50.970;10.082;2023-02-01T00:39:42;99468.06;;;3.57;66.38
64189;BME280;50493;50.970;10.082;2023-02-01T00:42:09;99469.91;;;3.72;66.95
64189;BME280;50493;50.970;10.082;2023-02-01T00:44:35;99466.25;;;3.47;66.60
64189;BME280;50493;50.970;10.082;2023-02-01T00:47:01;99475.06;;;3.67;66.67
64189;BME280;50493;50.970;10.082;2023-02-01T00:49:26;99477.59;;;3.64;67.02
64189;BME280;50493;50.970;10.082;2023-02-01T00:51:52;99477.59;;;3.64;65.47
64189;BME280;50493;50.970;10.082;2023-02-01T00:54:17;99468.97;;;3.59;65.73
64189;BME280;50493;50.970;10.082;2023-02-01T00:56:42;99468.22;;;3.72;65.31
64189;BME280;50493;50.970;10.082;2023-02-01T00:59:11;99475.16;;;3.80;65.81
64189;BME280;50493;50.970;10.082;2023-02-01T01:01:37;99474.38;;;3.93;64.37
64189;BME280;50493;50.970;10.082;2023-02-01T01:04:02;99465.00;;;4.11;68.04
64189;BME280;50493;50.970;10.082;2023-02-01T01:06:30;99458.97;;;4.10;64.55
64189;BME280;50493;50.970;10.082;2023-02-01T01:08:57;99455.50;;;4.05;66.56
64189;BME280;50493;50.970;10.082;2023-02-01T01:11:25;99459.66;;;3.86;67.27
64189;BME280;50493;50.970;10.082;2023-02-01T01:13:52;99459.78;;;4.01;63.81
64189;BME280;50493;50.970;10.082;2023-02-01T01:16:20;99452.88;;;4.02;63.76
64189;BME280;50493;50.970;10.082;2023-02-01T01:18:46;99461.16;;;3.53;66.71
64189;BME280;50493;50.970;10.082;2023-02-01T01:21:14;99460.34;;;3.60;66.65
64189;BME280;50493;50.970;10.082;2023-02-01T01:23:40;99462.09;;;3.64;66.00
64189;BME280;50493;50.970;10.082;2023-02-01T01:26:05;99464.75;;;3.73;67.52
64189;BME280;50493;50.970;10.082;2023-02-01T01:28:31;99458.75;;;3.78;64.00
64189;BME280;50493;50.970;10.082;2023-02-01T01:30:57;99459.63;;;3.77;64.01
64189;BME280;50493;50.970;10.082;2023-02-01T01:33:24;99470.00;;;3.86;67.86
64189;BME280;50493;50.970;10.082;2023-02-01T01:35:49;99463.22;;;3.97;63.95
64189;BME280;50493;50.970;10.082;2023-02-01T01:38:15;99468.38;;;4.00;64.62
64189;BME280;50493;50.970;10.082;2023-02-01T01:40:44;99468.31;;;3.85;66.60
64189;BME280;50493;50.970;10.082;2023-02-01T01:43:13;99460.63;;;3.99;64.95
64189;BME280;50493;50.970;10.082;2023-02-01T01:45:39;99447.69;;;4.03;64.13
64189;BME280;50493;50.970;10.082;2023-02-01T01:48:07;99441.78;;;4.20;63.40
64189;BME280;50493;50.970;10.082;2023-02-01T01:50:37;99446.97;;;4.24;64.78
64189;BME280;50493;50.970;10.082;2023-02-01T01:53:06;99437.47;;;4.19;65.34
64189;BME280;50493;50.970;10.082;2023-02-01T01:55:36;99440.09;;;4.33;63.30
64189;BME280;50493;50.970;10.082;2023-02-01T01:58:06;99438.41;;;4.41;63.69
64189;BME280;50493;50.970;10.082;2023-02-01T02:00:33;99432.34;;;4.31;64.79
64189;BME280;50493;50.970;10.082;2023-02-01T02:03:00;99429.72;;;4.25;63.82
64189;BME280;50493;50.970;10.082;2023-02-01T02:05:28;99420.19;;;4.18;64.59
64189;BME280;50493;50.970;10.082;2023-02-01T02:07:58;99416.00;;;4.41;65.07
64189;BME280;50493;50.970;10.082;2023-02-01T02:10:25;99416.66;;;3.97;65.00
64189;BME280;50493;50.970;10.082;2023-02-01T02:13:11;99410.28;;;3.47;67.35
64189;BME280;50493;50.970;10.082;2023-02-01T02:15:42;99421.56;;;3.57;65.61
64189;BME280;50493;50.970;10.082;2023-02-01T02:18:14;99418.38;;;3.98;66.24
64189;BME280;50493;50.970;10.082;2023-02-01T02:20:56;99419.16;;;3.85;66.63
64189;BME280;50493;50.970;10.082;2023-02-01T02:23:57;99427.72;;;3.79;68.11
64189;BME280;50493;50.970;10.082;2023-02-01T02:26:39;99425.38;;;4.18;67.24
64189;BME280;50493;50.970;10.082;2023-02-01T02:32:29;99426.22;;;2.98;68.50
64189;BME280;50493;50.970;10.082;2023-02-01T02:35:02;99420.38;;;3.18;70.12
64189;BME280;50493;50.970;10.082;2023-02-01T02:37:37;99417.31;;;2.71;69.72
64189;BME280;50493;50.970;10.082;2023-02-01T02:40:06;99429.47;;;1.50;74.96
64189;BME280;50493;50.970;10.082;2023-02-01T02:42:40;99426.16;;;0.59;79.47
64189;BME280;50493;50.970;10.082;2023-02-01T02:45:33;99407.66;;;0.79;79.62
64189;BME280;50493;50.970;10.082;2023-02-01T02:48:25;99405.53;;;1.59;77.15
64189;BME280;50493;50.970;10.082;2023-02-01T02:50:59;99408.16;;;2.23;76.39
64189;BME280;50493;50.970;10.082;2023-02-01T02:53:50;99392.34;;;2.72;74.47
64189;BME280;50493;50.970;10.082;2023-02-01T02:56:35;99377.06;;;2.94;72.70
64189;BME280;50493;50.970;10.082;2023-02-01T02:59:21;99382.53;;;3.24;73.13
64189;BME280;50493;50.970;10.082;2023-02-01T03:02:06;99372.28;;;3.32;71.10
64189;BME280;50493;50.970;10.082;2023-02-01T03:04:52;99374.19;;;3.58;71.84
64189;BME280;50493;50.970;10.082;2023-02-01T03:07:47;99369.75;;;3.42;71.51
64189;BME280;50493;50.970;10.082;2023-02-01T03:10:18;99355.19;;;3.56;72.00
64189;BME280;50493;50.970;10.082;2023-02-01T03:12:48;99356.19;;;3.77;71.55
64189;BME280;50493;50.970;10.082;2023-02-01T03:15:21;99357.56;;;3.25;69.60
64189;BME280;50493;50.970;10.082;2023-02-01T03:17:49;99345.63;;;3.43;70.48
64189;BME280;50493;50.970;10.082;2023-02-01T03:20:18;99349.03;;;3.38;71.88
64189;BME280;50493;50.970;10.082;2023-02-01T03:22:47;99343.84;;;3.32;71.97
64189;BME280;50493;50.970;10.082;2023-02-01T03:25:18;99342.63;;;2.92;71.39
64189;BME280;50493;50.970;10.082;2023-02-01T03:27:48;99342.78;;;3.09;72.00
64189;BME280;50493;50.970;10.082;2023-02-01T03:30:20;99335.88;;;3.03;71.93
64189;BME280;50493;50.970;10.082;2023-02-01T03:32:47;99334.19;;;3.05;73.43
64189;BME280;50493;50.970;10.082;2023-02-01T03:35:28;99349.78;;;3.20;73.17
64189;BME280;50493;50.970;10.082;2023-02-01T03:38:01;99346.59;;;2.57;72.72
64189;BME280;50493;50.970;10.082;2023-02-01T03:40:30;99346.19;;;2.98;72.78
64189;BME280;50493;50.970;10.082;2023-02-01T03:43:01;99351.53;;;2.34;73.21
64189;BME280;50493;50.970;10.082;2023-02-01T03:45:34;99350.81;;;2.47;71.87
64189;BME280;50493;50.970;10.082;2023-02-01T03:48:02;99351.53;;;2.35;73.59
64189;BME280;50493;50.970;10.082;2023-02-01T03:50:30;99343.47;;;2.87;72.58
64189;BME280;50493;50.970;10.082;2023-02-01T03:53:01;99338.94;;;2.65;72.90
64189;BME280;50493;50.970;10.082;2023-02-01T03:55:28;99334.28;;;3.17;72.92
64189;BME280;50493;50.970;10.082;2023-02-01T03:57:58;99331.63;;;3.13;73.13
64189;BME280;50493;50.970;10.082;2023-02-01T04:00:26;99322.00;;;2.95;74.50
64189;BME280;50493;50.970;10.082;2023-02-01T04:02:52;99325.75;;;3.29;71.86
64189;BME280;50493;50.970;10.082;2023-02-01T04:05:18;99328.28;;;3.26;72.65
64189;BME280;50493;50.970;10.082;2023-02-01T04:07:43;99329.84;;;3.02;72.04
64189;BME280;50493;50.970;10.082;2023-02-01T04:10:11;99329.81;;;2.99;72.82
64189;BME280;50493;50.970;10.082;2023-02-01T04:12:36;99322.28;;;3.26;73.54
64189;BME280;50493;50.970;10.082;2023-02-01T04:15:02;99326.75;;;3.53;73.07
64189;BME280;50493;50.970;10.082;2023-02-01T04:17:28;99318.09;;;3.48;71.71
64189;BME280;50493;50.970;10.082;2023-02-01T04:19:53;99311.22;;;3.50;69.71
64189;BME280;50493;50.970;10.082;2023-02-01T04:22:19;99305.44;;;4.00;71.58
64189;BME280;50493;50.970;10.082;2023-02-01T04:24:44;99301.91;;;3.83;69.53
64189;BME280;50493;50.970;10.082;2023-02-01T04:27:11;99300.22;;;3.83;69.06
64189;BME280;50493;50.970;10.082;2023-02-01T04:29:36;99297.59;;;3.80;69.92
64189;BME280;50493;50.970;10.082;2023-02-01T04:32:02;99291.66;;;4.07;70.32
64189;BME280;50493;50.970;10.082;2023-02-01T04:34:27;99300.25;;;3.96;69.94
64189;BME280;50493;50.970;10.082;2023-02-01T04:36:52;99296.56;;;3.44;69.79
64189;BME280;50493;50.970;10.082;2023-02-01T04:39:18;99291.41;;;3.49;71.70
64189;BME280;50493;50.970;10.082;2023-02-01T04:41:43;99288.59;;;3.13;70.47
64189;BME280;50493;50.970;10.082;2023-02-01T04:44:13;99295.38;;;3.00;73.61
64189;BME280;50493;50.970;10.082;2023-02-01T04:46:39;99293.84;;;3.24;70.77
64189;BME280;50493;50.970;10.082;2023-02-01T04:49:05;99280.16;;;3.37;70.72
64189;BME280;50493;50.970;10.082;2023-02-01T04:51:30;99282.84;;;3.61;71.14
64189;BME280;50493;50.970;10.082;2023-02-01T04:53:56;99272.53;;;3.61;70.80
64189;BME280;50493;50.970;10.082;2023-02-01T04:56:21;99270.81;;;3.67;68.69
64189;BME280;50493;50.970;10.082;2023-02-01T04:58:46;99264.75;;;3.59;69.18
64189;BME280;50493;50.970;10.082;2023-02-01T05:01:13;99258.59;;;3.37;70.07
64189;BME280;50493;50.970;10.082;2023-02-01T05:03:38;99251.75;;;3.45;70.42
64189;BME280;50493;50.970;10.082;2023-02-01T05:06:04;99258.44;;;3.09;70.42
64189;BME280;50493;50.970;10.082;2023-02-01T05:08:30;99254.97;;;3.09;70.62
64189;BME280;50493;50.970;10.082;2023-02-01T05:10:55;99249.09;;;3.28;70.70
64189;BME280;50493;50.970;10.082;2023-02-01T05:13:20;99254.13;;;3.10;68.22
64189;BME280;50493;50.970;10.082;2023-02-01T05:16:05;99251.78;;;3.48;70.56
64189;BME280;50493;50.970;10.082;2023-02-01T05:18:32;99253.47;;;3.42;69.58
64189;BME280;50493;50.970;10.082;2023-02-01T05:20:57;99249.25;;;3.62;69.43
64189;BME280;50493;50.970;10.082;2023-02-01T05:23:22;99248.31;;;3.40;69.14
64189;BME280;50493;50.970;10.082;2023-02-01T05:25:48;99264.59;;;3.31;69.25
64189;BME280;50493;50.970;10.082;2023-02-01T05:28:13;99254.38;;;3.50;67.97
64189;BME280;50493;50.970;10.082;2023-02-01T05:30:38;99261.19;;;3.35;68.27
64189;BME280;50493;50.970;10.082;2023-02-01T05:33:04;99251.75;;;3.44;66.99
64189;BME280;50493;50.970;10.082;2023-02-01T05:35:30;99248.25;;;3.38;68.10
64189;BME280;50493;50.970;10.082;2023-02-01T05:37:56;99233.59;;;3.31;68.40
64189;BME280;50493;50.970;10.082;2023-02-01T05:40:21;99231.78;;;3.12;69.21
64189;BME280;50493;50.970;10.082;2023-02-01T05:42:47;99214.56;;;3.17;67.70
64189;BME280;50493;50.970;10.082;2023-02-01T05:45:13;99222.34;;;3.20;68.24
64189;BME280;50493;50.970;10.082;2023-02-01T05:47:38;99222.16;;;2.95;69.21
64189;BME280;50493;50.970;10.082;2023-02-01T05:50:04;99216.78;;;2.66;70.91
64189;BME280;50493;50.970;10.082;2023-02-01T05:52:31;99229.03;;;2.90;68.82
64189;BME280;50493;50.970;10.082;2023-02-01T05:54:57;99234.13;;;2.82;68.93
64189;BME280;50493;50.970;10.082;2023-02-01T05:57:22;99234.63;;;2.39;70.47
64189;BME280;50493;50.970;10.082;2023-02-01T05:59:48;99242.13;;;3.18;68.08
64189;BME280;50493;50.970;10.082;2023-02-01T06:02:13;99238.56;;;3.00;66.94
64189;BME280;50493;50.970;10.082;2023-02-01T06:04:39;99233.53;;;3.25;67.62
64189;BME280;50493;50.970;10.082;2023-02-01T06:07:04;99247.28;;;3.15;66.92
64189;BME280;50493;50.970;10.082;2023-02-01T06:09:33;99232.28;;;2.69;68.85
64189;BME280;50493;50.970;10.082;2023-02-01T06:11:58;99231.28;;;2.50;69.22
64189;BME280;50493;50.970;10.082;2023-02-01T06:14:24;99235.63;;;2.55;69.22
64189;BME280;50493;50.970;10.082;2023-02-01T06:16:50;99232.72;;;2.20;69.56
64189;BME280;50493;50.970;10.082;2023-02-01T06:19:15;99228.00;;;2.69;68.66
64189;BME280;50493;50.970;10.082;2023-02-01T06:21:41;99224.63;;;2.80;67.51
64189;BME280;50493;50.970;10.082;2023-02-01T06:24:06;99220.22;;;2.65;67.45
64189;BME280;50493;50.970;10.082;2023-02-01T06:26:33;99219.47;;;2.80;68.08
64189;BME280;50493;50.970;10.082;2023-02-01T06:28:58;99212.47;;;2.63;66.71
64189;BME280;50493;50.970;10.082;2023-02-01T06:31:24;99216.22;;;3.05;67.33
64189;BME280;50493;50.970;10.082;2023-02-01T06:33:51;99202.53;;;3.20;65.53
64189;BME280;50493;50.970;10.082;2023-02-01T06:36:16;99218.63;;;2.79;67.57
64189;BME280;50493;50.970;10.082;2023-02-01T06:38:43;99218.66;;;2.85;66.98
64189;BME280;50493;50.970;10.082;2023-02-01T06:41:09;99214.25;;;2.73;66.84
64189;BME280;50493;50.970;10.082;2023-02-01T06:43:36;99223.28;;;2.23;69.63
64189;BME280;50493;50.970;10.082;2023-02-01T06:46:04;99215.19;;;2.83;66.76
64189;BME280;50493;50.970;10.082;2023-02-01T06:48:29;99218.94;;;2.18;69.21
64189;BME280;50493;50.970;10.082;2023-02-01T06:50:55;99229.34;;;2.24;69.33
64189;BME280;50493;50.970;10.082;2023-02-01T06:53:20;99231.03;;;2.22;69.72
64189;BME280;50493;50.970;10.082;2023-02-01T06:55:51;99221.50;;;2.13;70.13
64189;BME280;50493;50.970;10.082;2023-02-01T06:58:17;99219.06;;;2.30;69.61
64189;BME280;50493;50.970;10.082;2023-02-01T07:00:43;99223.44;;;2.39;69.66
64189;BME280;50493;50.970;10.082;2023-02-01T07:03:09;99216.34;;;2.13;70.57
64189;BME280;50493;50.970;10.082;2023-02-01T07:05:34;99221.28;;;1.93;70.62
64189;BME280;50493;50.970;10.082;2023-02-01T07:07:59;99212.75;;;1.99;70.69
64189;BME280;50493;50.970;10.082;2023-02-01T07:10:25;99211.88;;;1.97;71.69
64189;BME280;50493;50.970;10.082;2023-02-01T07:12:50;99229.75;;;1.83;72.30
64189;BME280;50493;50.970;10.082;2023-02-01T07:15:15;99227.22;;;1.86;72.30
64189;BME280;50493;50.970;10.082;2023-02-01T07:17:42;99239.19;;;1.81;72.36
64189;BME280;50493;50.970;10.082;2023-02-01T07:20:10;99241.75;;;1.79;73.20
64189;BME280;50493;50.970;10.082;2023-02-01T07:22:35;99246.22;;;1.94;71.47
64189;BME280;50493;50.970;10.082;2023-02-01T07:25:00;99241.78;;;1.84;72.99
64189;BME280;50493;50.970;10.082;2023-02-01T07:27:26;99241.22;;;2.10;70.14
64189;BME280;50493;50.970;10.082;2023-02-01T07:29:51;99240.34;;;1.35;74.40
64189;BME280;50493;50.970;10.082;2023-02-01T07:32:17;99236.75;;;1.95;71.47
64189;BME280;50493;50.970;10.082;2023-02-01T07:34:44;99244.41;;;1.87;71.04
64189;BME280;50493;50.970;10.082;2023-02-01T07:37:09;99240.34;;;2.08;71.12
64189;BME280;50493;50.970;10.082;2023-02-01T07:39:35;99238.50;;;1.97;69.92
64189;BME280;50493;50.970;10.082;2023-02-01T07:42:00;99250.41;;;1.84;71.56
64189;BME280;50493;50.970;10.082;2023-02-01T07:44:25;99243.84;;;2.14;70.60
64189;BME280;50493;50.970;10.082;2023-02-01T07:46:51;99264.13;;;1.82;72.83
64189;BME280;50493;50.970;10.082;2023-02-01T07:49:16;99255.22;;;2.33;70.03
64189;BME280;50493;50.970;10.082;2023-02-01T07:51:43;99248.31;;;2.32;70.71
64189;BME280;50493;50.970;10.082;2023-02-01T07:54:09;99248.41;;;1.62;73.52
64189;BME280;50493;50.970;10.082;2023-02-01T07:56:34;99243.06;;;2.20;72.29
64189;BME280;50493;50.970;10.082;2023-02-01T07:59:00;99245.38;;;1.97;72.57
64189;BME280;50493;50.970;10.082;2023-02-01T08:01:27;99259.88;;;1.87;73.14
64189;BME280;50493;50.970;10.082;2023-02-01T08:03:54;99259.94;;;1.93;73.41
64189;BME280;50493;50.970;10.082;2023-02-01T08:06:21;99255.75;;;2.04;72.42
64189;BME280;50493;50.970;10.082;2023-02-01T08:08:48;99256.88;;;1.51;73.93
64189;BME280;50493;50.970;10.082;2023-02-01T08:11:14;99258.06;;;1.80;74.01
64189;BME280;50493;50.970;10.082;2023-02-01T08:13:41;99271.19;;;2.00;72.64
64189;BME280;50493;50.970;10.082;2023-02-01T08:16:08;99272.69;;;1.15;76.66
64189;BME280;50493;50.970;10.082;2023-02-01T08:18:35;99291.34;;;1.01;77.79
64189;BME280;50493;50.970;10.082;2023-02-01T08:21:03;99289.53;;;0.93;78.09
64189;BME280;50493;50.970;10.082;2023-02-01T08:23:28;99294.50;;;0.82;78.79
64189;BME280;50493;50.970;10.082;2023-02-01T08:26:04;99304.34;;;0.57;80.33
64189;BME280;50493;50.970;10.082;2023-02-01T08:28:29;99307.88;;;0.62;80.76
64189;BME280;50493;50.970;10.082;2023-02-01T08:30:55;99316.38;;;0.58;81.04
64189;BME280;50493;50.970;10.082;2023-02-01T08:33:20;99314.97;;;0.76;80.26
64189;BME280;50493;50.970;10.082;2023-02-01T08:35:45;99327.34;;;0.98;79.83
64189;BME280;50493;50.970;10.082;2023-02-01T08:38:10;99315.50;;;1.10;78.64
64189;BME280;50493;50.970;10.082;2023-02-01T08:40:36;99310.16;;;0.97;79.47
64189;BME280;50493;50.970;10.082;2023-02-01T08:43:03;99327.16;;;0.86;79.49
64189;BME280;50493;50.970;10.082;2023-02-01T08:45:29;99322.03;;;1.44;78.50
64189;BME280;50493;50.970;10.082;2023-02-01T08:47:55;99314.91;;;1.89;77.46
64189;BME280;50493;50.970;10.082;2023-02-01T08:50:21;99327.81;;;1.28;78.11
64189;BME280;50493;50.970;10.082;2023-02-01T08:52:47;99329.22;;;2.37;74.84
64189;BME280;50493;50.970;10.082;2023-02-01T08:55:13;99328.72;;;1.94;74.88
64189;BME280;50493;50.970;10.082;2023-02-01T08:57:38;99321.69;;;2.61;73.87
64189;BME280;50493;50.970;10.082;2023-02-01T09:00:08;99323.03;;;3.11;72.40
64189;BME280;50493;50.970;10.082;2023-02-01T09:02:35;99332.38;;;2.12;73.30
64189;BME280;50493;50.970;10.082;2023-02-01T09:05:01;99324.22;;;2.56;73.07
64189;BME280;50493;50.970;10.082;2023-02-01T09:07:26;99330.91;;;2.35;73.55
64189;BME280;50493;50.970;10.082;2023-02-01T09:09:51;99339.59;;;2.44;73.34
64189;BME280;50493;50.970;10.082;2023-02-01T09:12:19;99335.66;;;2.01;74.76
64189;BME280;50493;50.970;10.082;2023-02-01T09:14:44;99329.47;;;2.65;72.29
64189;BME280;50493;50.970;10.082;2023-02-01T09:17:11;99342.16;;;1.71;76.81
64189;BME280;50493;50.970;10.082;2023-02-01T09:19:38;99335.03;;;1.52;77.26
64189;BME280;50493;50.970;10.082;2023-02-01T09:22:03;99348.19;;;2.43;75.60
64189;BME280;50493;50.970;10.082;2023-02-01T09:24:29;99337.81;;;2.39;73.14
64189;BME280;50493;50.970;10.082;2023-02-01T09:26:54;99342.25;;;1.78;76.88
64189;BME280;50493;50.970;10.082;2023-02-01T09:29:20;99336.09;;;1.69;76.63
64189;BME280;50493;50.970;10.082;2023-02-01T09:31:45;99348.31;;;2.55;74.10
64189;BME280;50493;50.970;10.082;2023-02-01T09:34:12;99347.69;;;2.79;73.92
64189;BME280;50493;50.970;10.082;2023-02-01T09:36:37;99342.00;;;3.16;72.86
64189;BME280;50493;50.970;10.082;2023-02-01T09:39:03;99358.19;;;2.15;75.62
64189;BME280;50493;50.970;10.082;2023-02-01T09:41:42;99333.16;;;2.06;75.31
64189;BME280;50493;50.970;10.082;2023-02-01T09:44:21;99362.94;;;1.84;78.23
64189;BME280;50493;50.970;10.082;2023-02-01T09:46:53;99356.94;;;2.60;75.60
64189;BME280;50493;50.970;10.082;2023-02-01T09:49:27;99348.25;;;2.49;74.86
64189;BME280;50493;50.970;10.082;2023-02-01T09:51:53;99349.47;;;2.85;74.47
64189;BME280;50493;50.970;10.082;2023-02-01T09:54:22;99363.50;;;2.30;74.43
64189;BME280;50493;50.970;10.082;2023-02-01T09:56:52;99368.88;;;2.47;74.92
64189;BME280;50493;50.970;10.082;2023-02-01T09:59:26;99359.00;;;2.11;77.23
64189;BME280;50493;50.970;10.082;2023-02-01T10:01:55;99362.50;;;2.17;76.71
64189;BME280;50493;50.970;10.082;2023-02-01T10:04:22;99365.56;;;2.59;74.09
64189;BME280;50493;50.970;10.082;2023-02-01T10:07:00;99365.25;;;2.31;75.69
64189;BME280;50493;50.970;10.082;2023-02-01T10:09:39;99362.38;;;2.88;73.42
64189;BME280;50493;50.970;10.082;2023-02-01T10:12:33;99364.97;;;2.86;73.72
64189;BME280;50493;50.970;10.082;2023-02-01T10:15:17;99364.13;;;2.89;73.18
64189;BME280;50493;50.970;10.082;2023-02-01T10:17:56;99355.28;;;3.70;70.88
64189;BME280;50493;50.970;10.082;2023-02-01T10:20:30;99346.84;;;4.05;68.85
64189;BME280;50493;50.970;10.082;2023-02-01T10:23:09;99347.13;;;3.10;73.69
64189;BME280;50493;50.970;10.082;2023-02-01T10:25:44;99346.38;;;3.24;72.55
64189;BME280;50493;50.970;10.082;2023-02-01T10:28:18;99345.84;;;3.77;69.69
64189;BME280;50493;50.970;10.082;2023-02-01T10:30:47;99335.28;;;3.39;72.42
64189;BME280;50493;50.970;10.082;2023-02-01T10:33:16;99340.69;;;3.80;69.58
64189;BME280;50493;50.970;10.082;2023-02-01T10:35:44;99322.63;;;3.90;69.57
64189;BME280;50493;50.970;10.082;2023-02-01T10:38:21;99333.72;;;3.68;70.17
64189;BME280;50493;50.970;10.082;2023-02-01T10:40:49;99332.59;;;3.26;72.62
64189;BME280;50493;50.970;10.082;2023-02-01T10:43:14;99328.66;;;3.88;70.34
64189;BME280;50493;50.970;10.082;2023-02-01T10:45:40;99326.97;;;3.93;69.96
64189;BME280;50493;50.970;10.082;2023-02-01T10:48:07;99332.53;;;3.19;73.30
64189;BME280;50493;50.970;10.082;2023-02-01T10:50:35;99318.31;;;2.69;76.08
64189;BME280;50493;50.970;10.082;2023-02-01T10:53:15;99323.88;;;3.11;73.66
64189;BME280;50493;50.970;10.082;2023-02-01T10:55:47;99325.41;;;2.92;75.36
64189;BME280;50493;50.970;10.082;2023-02-01T10:58:17;99314.94;;;4.07;68.73
64189;BME280;50493;50.970;10.082;2023-02-01T11:00:45;99317.19;;;3.36;73.10
64189;BME280;50493;50.970;10.082;2023-02-01T11:03:41;99314.59;;;3.39;73.01
64189;BME280;50493;50.970;10.082;2023-02-01T11:06:17;99313.84;;;3.57;73.12
64189;BME280;50493;50.970;10.082;2023-02-01T11:08:48;99309.44;;;3.43;73.74
64189;BME280;50493;50.970;10.082;2023-02-01T11:11:14;99320.16;;;4.23;68.97
64189;BME280;50493;50.970;10.082;2023-02-01T11:13:40;99307.03;;;3.69;71.20
64189;BME280;50493;50.970;10.082;2023-02-01T11:16:09;99309.81;;;4.29;70.06
64189;BME280;50493;50.970;10.082;2023-02-01T11:18:37;99308.59;;;3.47;74.45
64189;BME280;50493;50.970;10.082;2023-02-01T11:21:03;99307.16;;;4.00;71.70
64189;BME280;50493;50.970;10.082;2023-02-01T11:23:30;99309.47;;;3.46;75.04
64189;BME280;50493;50.970;10.082;2023-02-01T11:26:01;99301.91;;;3.83;72.81
64189;BME280;50493;50.970;10.082;2023-02-01T11:28:33;99293.28;;;3.81;72.81
64189;BME280;50493;50.970;10.082;2023-02-01T11:31:02;99299.19;;;3.55;70.63
64189;BME280;50493;50.970;10.082;2023-02-01T11:33:30;99292.63;;;4.50;67.48
64189;BME280;50493;50.970;10.082;2023-02-01T11:35:59;99286.56;;;4.37;66.05
64189;BME280;50493;50.970;10.082;2023-02-01T11:38:28;99282.25;;;4.37;63.36
64189;BME280;50493;50.970;10.082;2023-02-01T11:40:53;99285.66;;;4.18;65.94
64189;BME280;50493;50.970;10.082;2023-02-01T11:43:23;99265.00;;;4.47;65.97
64189;BME280;50493;50.970;10.082;2023-02-01T11:45:57;99278.72;;;4.03;65.01
64189;BME280;50493;50.970;10.082;2023-02-01T11:48:24;99276.94;;;3.91;69.08
64189;BME280;50493;50.970;10.082;2023-02-01T11:50:57;99274.25;;;3.65;74.81
64189;BME280;50493;50.970;10.082;2023-02-01T11:53:33;99270.94;;;4.06;71.56
64189;BME280;50493;50.970;10.082;2023-02-01T11:56:11;99275.25;;;3.93;71.50
64189;BME280;50493;50.970;10.082;2023-02-01T11:58:50;99278.53;;;3.64;73.59
64189;BME280;50493;50.970;10.082;2023-02-01T12:01:33;99275.13;;;3.65;74.83
64189;BME280;50493;50.970;10.082;2023-02-01T12:07:17;99270.03;;;3.87;72.10
64189;BME280;50493;50.970;10.082;2023-02-01T12:09:54;99276.97;;;4.00;67.95
64189;BME280;50493;50.970;10.082;2023-02-01T12:12:26;99279.63;;;4.22;69.17
64189;BME280;50493;50.970;10.082;2023-02-01T12:15:12;99277.03;;;4.19;69.15
64189;BME280;50493;50.970;10.082;2023-02-01T12:17:48;99275.91;;;3.49;75.52
64189;BME280;50493;50.970;10.082;2023-02-01T12:20:34;99265.81;;;4.17;66.97
64189;BME280;50493;50.970;10.082;2023-02-01T12:23:23;99274.44;;;4.20;71.61
64189;BME280;50493;50.970;10.082;2023-02-01T12:26:00;99258.91;;;4.14;71.28
64189;BME280;50493;50.970;10.082;2023-02-01T12:28:38;99252.91;;;4.26;66.27
64189;BME280;50493;50.970;10.082;2023-02-01T12:31:15;99249.44;;;4.30;63.51
64189;BME280;50493;50.970;10.082;2023-02-01T12:33:59;99236.50;;;4.33;67.42
64189;BME280;50493;50.970;10.082;2023-02-01T12:36:34;99233.09;;;4.39;65.49
64189;BME280;50493;50.970;10.082;2023-02-01T12:39:07;99224.47;;;4.43;70.69
64189;BME280;50493;50.970;10.082;2023-02-01T12:42:03;99232.19;;;4.20;71.77
64189;BME280;50493;50.970;10.082;2023-02-01T12:44:39;99232.94;;;3.80;69.93
64189;BME280;50493;50.970;10.082;2023-02-01T12:47:18;99226.97;;;4.07;73.60
64189;BME280;50493;50.970;10.082;2023-02-01T12:49:54;99224.38;;;3.95;71.88
64189;BME280;50493;50.970;10.082;2023-02-01T12:52:27;99203.75;;;4.31;69.48
64189;BME280;50493;50.970;10.082;2023-02-01T12:55:04;99223.53;;;4.08;69.04
64189;BME280;50493;50.970;10.082;2023-02-01T12:57:33;99216.69;;;4.38;68.54
64189;BME280;50493;50.970;10.082;2023-02-01T13:00:04;99206.34;;;4.48;61.66
64189;BME280;50493;50.970;10.082;2023-02-01T13:02:39;99203.72;;;4.18;66.10
64189;BME280;50493;50.970;10.082;2023-02-01T13:05:13;99204.56;;;3.94;73.32
64189;BME280;50493;50.970;10.082;2023-02-01T13:07:45;99182.09;;;3.84;74.15
64189;BME280;50493;50.970;10.082;2023-02-01T13:10:16;99188.06;;;3.61;74.70
64189;BME280;50493;50.970;10.082;2023-02-01T13:12:47;99189.88;;;3.88;72.28
64189;BME280;50493;50.970;10.082;2023-02-01T13:15:17;99188.22;;;4.35;64.28
64189;BME280;50493;50.970;10.082;2023-02-01T13:17:47;99169.25;;;4.35;61.69